Time;durP1;ratioP1;P1;durP2;ratioP2;P2;SDS_P1;SDS_P2;PMS_P1;PMS_P2;Temp;Humidity;BMP_temperature;BMP_pressure;BME280_temperature;BME280_humidity;BME280_pressure;Samples;Min_cycle;Max_cycle;Signal;HPM_P1;HPM_P2
2022/06/27 00:01:36;;;;;;;17.58;9.80;;;;;;;15.99;100.00;99181.34;5118374;27;20040;-53
2022/06/27 00:04:03;;;;;;;18.83;10.02;;;;;;;15.86;100.00;99180.06;5102546;27;20019;-55
2022/06/27 00:06:28;;;;;;;14.15;10.68;;;;;;;15.73;100.00;99176.88;5117492;27;20039;-52
2022/06/27 00:08:54;;;;;;;16.52;10.02;;;;;;;15.71;100.00;99183.66;5123758;27;20019;-53
2022/06/27 00:11:20;;;;;;;17.17;10.48;;;;;;;15.89;100.00;99176.78;5122883;27;20146;-55
2022/06/27 00:13:46;;;;;;;13.98;9.25;;;;;;;15.91;100.00;99172.72;5116107;27;20026;-55
2022/06/27 00:16:11;;;;;;;17.45;9.75;;;;;;;15.95;100.00;99145.97;5116883;27;20369;-55
2022/06/27 00:18:37;;;;;;;20.02;9.60;;;;;;;15.87;100.00;99133.03;5116692;27;20513;-54
2022/06/27 00:21:02;;;;;;;27.70;10.77;;;;;;;15.38;100.00;99125.69;5114677;27;20034;-55
2022/06/27 00:23:28;;;;;;;22.80;11.57;;;;;;;15.35;100.00;99107.31;5127215;27;20027;-54
2022/06/27 00:25:53;;;;;;;21.80;12.93;;;;;;;15.36;100.00;99098.97;5124093;27;20027;-53
2022/06/27 00:28:19;;;;;;;23.15;13.00;;;;;;;15.43;100.00;99120.28;5116298;27;20073;-55
2022/06/27 00:30:44;;;;;;;19.42;13.35;;;;;;;15.53;100.00;99128.31;5120991;27;20030;-54
2022/06/27 00:33:10;;;;;;;17.95;12.75;;;;;;;15.74;100.00;99151.47;5113365;27;20031;-55
2022/06/27 00:35:35;;;;;;;19.48;11.98;;;;;;;15.67;100.00;99169.84;5126762;27;20027;-55
2022/06/27 00:38:00;;;;;;;19.35;11.63;;;;;;;15.59;100.00;99178.53;5116258;27;20050;-55
2022/06/27 00:40:26;;;;;;;16.00;11.93;;;;;;;15.54;100.00;99165.84;5101092;28;20031;-55
2022/06/27 00:42:51;;;;;;;20.17;12.10;;;;;;;15.24;100.00;99155.16;5096514;28;20023;-54
2022/06/27 00:45:17;;;;;;;18.02;13.38;;;;;;;15.44;100.00;99146.19;5112932;27;20110;-55
2022/06/27 00:47:42;;;;;;;18.08;12.68;;;;;;;15.54;100.00;99162.34;5117286;27;20027;-55
2022/06/27 00:50:08;;;;;;;20.75;12.65;;;;;;;15.64;100.00;99151.50;5090532;27;20512;-55
2022/06/27 00:52:34;;;;;;;27.05;13.20;;;;;;;15.72;100.00;99148.25;5109762;27;20024;-55
2022/06/27 00:54:59;;;;;;;21.88;12.48;;;;;;;15.78;100.00;99153.63;5099301;28;20100;-54
2022/06/27 00:57:25;;;;;;;18.80;12.35;;;;;;;15.86;100.00;99163.84;5116119;27;20473;-55
2022/06/27 00:59:50;;;;;;;16.30;11.55;;;;;;;15.75;100.00;99163.09;5115304;28;20126;-55
2022/06/27 01:02:15;;;;;;;19.70;12.25;;;;;;;15.72;100.00;99175.28;5120331;27;20023;-54
2022/06/27 01:04:41;;;;;;;27.00;12.90;;;;;;;15.60;100.00;99172.06;5115103;28;20408;-55
2022/06/27 01:07:07;;;;;;;19.40;12.38;;;;;;;15.55;100.00;99158.56;5105775;28;20015;-55
2022/06/27 01:09:33;;;;;;;19.35;12.90;;;;;;;15.35;100.00;99159.47;5102904;28;20047;-54
2022/06/27 01:11:58;;;;;;;23.83;12.68;;;;;;;15.52;100.00;99159.09;5119654;28;20026;-55
2022/06/27 01:14:23;;;;;;;25.58;12.98;;;;;;;15.55;100.00;99163.97;5114032;28;20022;-55
2022/06/27 01:16:49;;;;;;;22.73;13.18;;;;;;;15.65;100.00;99169.34;5119426;28;20080;-54
2022/06/27 01:19:15;;;;;;;23.45;12.93;;;;;;;15.73;100.00;99182.28;5102552;28;20031;-54
2022/06/27 01:21:48;;;;;;;24.40;12.38;;;;;;;15.76;100.00;99175.50;5115534;28;20102;-54
2022/06/27 01:24:14;;;;;;;21.15;12.65;;;;;;;15.83;100.00;99176.03;5116315;28;20481;-54
2022/06/27 01:26:41;;;;;;;21.52;13.20;;;;;;;15.63;100.00;99171.50;5114600;28;20042;-55
2022/06/27 01:29:06;;;;;;;21.98;11.23;;;;;;;15.79;100.00;99179.56;5090280;28;20051;-56
2022/06/27 01:31:31;;;;;;;19.42;12.45;;;;;;;15.82;100.00;99182.50;5103483;28;20056;-55
2022/06/27 01:33:57;;;;;;;17.38;12.52;;;;;;;15.82;100.00;99168.19;5099024;28;20033;-54
2022/06/27 01:39:07;;;;;;;19.60;12.43;;;;;;;15.69;100.00;99148.78;5118198;28;20558;-55
2022/06/27 01:41:32;;;;;;;19.77;12.48;;;;;;;15.57;100.00;99150.16;5108769;28;20035;-55
2022/06/27 01:44:00;;;;;;;19.48;13.63;;;;;;;15.64;100.00;99146.09;5114167;27;20046;-55
2022/06/27 01:46:37;;;;;;;19.33;13.50;;;;;;;15.78;100.00;99154.44;5101204;28;20034;-54
2022/06/27 01:49:03;;;;;;;21.70;12.85;;;;;;;15.81;100.00;99161.19;5119662;27;20028;-55
2022/06/27 01:51:28;;;;;;;16.55;12.35;;;;;;;15.84;100.00;99156.00;5124924;27;20026;-55
2022/06/27 01:53:54;;;;;;;18.25;12.77;;;;;;;15.93;100.00;99164.34;5077894;27;20481;-55
2022/06/27 01:56:19;;;;;;;24.63;12.05;;;;;;;15.93;100.00;99159.75;5121187;27;20034;-55
2022/06/27 01:58:44;;;;;;;22.52;12.25;;;;;;;16.00;100.00;99151.34;5105246;27;20019;-55
2022/06/27 02:01:10;;;;;;;19.63;12.48;;;;;;;16.01;100.00;99144.84;5116068;27;20047;-55
2022/06/27 02:03:35;;;;;;;17.35;12.23;;;;;;;15.98;100.00;99155.41;5121657;27;20024;-55
2022/06/27 02:06:01;;;;;;;17.95;13.68;;;;;;;15.98;100.00;99155.41;5104632;27;20023;-53
2022/06/27 02:08:27;;;;;;;19.73;13.23;;;;;;;15.98;100.00;99150.00;5127223;27;20023;-51
2022/06/27 02:10:52;;;;;;;17.35;12.32;;;;;;;15.97;100.00;99143.78;5102316;27;20023;-55
2022/06/27 02:13:18;;;;;;;21.13;12.25;;;;;;;15.96;100.00;99150.28;5123447;27;20357;-52
2022/06/27 02:16:10;;;;;;;23.95;12.65;;;;;;;16.04;100.00;99151.56;5107871;27;20058;-53
2022/06/27 02:18:36;;;;;;;23.25;13.20;;;;;;;15.80;100.00;99148.72;5123975;27;20068;-56
2022/06/27 02:21:01;;;;;;;24.35;13.68;;;;;;;15.53;100.00;99149.94;5122201;27;20028;-51
2022/06/27 02:23:27;;;;;;;21.58;14.10;;;;;;;15.53;100.00;99144.53;5121777;27;20128;-56
2022/06/27 02:25:52;;;;;;;21.90;14.75;;;;;;;15.64;100.00;99146.09;5086400;28;20111;-56
2022/06/27 02:28:18;;;;;;;26.05;15.40;;;;;;;15.53;100.00;99144.53;5119571;27;20520;-56
2022/06/27 02:30:43;;;;;;;23.23;15.55;;;;;;;15.82;100.00;99141.16;5100702;28;20046;-53
2022/06/27 02:33:08;;;;;;;23.40;15.80;;;;;;;15.90;100.00;99143.25;5118374;27;20023;-54
2022/06/27 02:35:34;;;;;;;20.63;15.23;;;;;;;15.88;100.00;99140.06;5100448;28;20466;-55
2022/06/27 02:37:59;;;;;;;21.08;14.57;;;;;;;15.90;100.00;99127.88;5098061;27;20414;-55
2022/06/27 02:40:25;;;;;;;21.33;14.00;;;;;;;15.82;100.00;99125.75;5084994;28;20035;-56
2022/06/27 02:42:50;;;;;;;27.20;16.73;;;;;;;15.77;100.00;99130.38;5078375;27;20517;-54
2022/06/27 02:45:16;;;;;;;19.73;14.95;;;;;;;15.84;100.00;99139.00;5120718;27;20101;-53
2022/06/27 02:47:42;;;;;;;20.65;15.70;;;;;;;15.93;100.00;99145.44;5106612;27;20027;-53
2022/06/27 02:50:10;;;;;;;23.60;16.70;;;;;;;15.78;99.63;99140.13;5112965;27;20375;-53
2022/06/27 02:52:38;;;;;;;25.67;16.08;;;;;;;15.73;99.87;99132.84;5081595;28;20027;-56
2022/06/27 02:55:06;;;;;;;25.55;16.30;;;;;;;15.61;100.00;99125.03;5102525;27;20098;-53
2022/06/27 02:57:45;;;;;;;24.67;17.08;;;;;;;15.68;100.00;99133.66;5105537;28;20167;-53
2022/06/27 03:00:12;;;;;;;22.48;15.65;;;;;;;15.72;99.91;99136.63;5098945;27;20143;-55
2022/06/27 03:02:38;;;;;;;22.20;13.90;;;;;;;15.70;98.68;99134.22;5118859;27;20034;-56
2022/06/27 03:05:04;;;;;;;20.42;13.65;;;;;;;15.82;98.25;99124.94;5119291;27;20023;-56
2022/06/27 03:07:29;;;;;;;20.77;14.63;;;;;;;15.84;99.24;99128.19;5102468;28;20492;-54
2022/06/27 03:10:01;;;;;;;23.13;14.63;;;;;;;15.86;98.64;99120.59;5123052;27;20035;-54
2022/06/27 03:12:26;;;;;;;22.15;13.70;;;;;;;15.73;99.01;99122.84;5124151;27;20166;-56
2022/06/27 03:14:52;;;;;;;22.67;13.57;;;;;;;15.80;97.82;99122.53;5118481;27;20043;-55
2022/06/27 03:17:17;;;;;;;23.77;14.32;;;;;;;15.82;98.35;99124.94;5123988;27;20019;-55
2022/06/27 03:19:42;;;;;;;20.52;14.25;;;;;;;15.69;97.63;99129.03;5121764;27;20471;-55
2022/06/27 03:22:08;;;;;;;28.05;14.68;;;;;;;15.75;97.40;99122.56;5121842;27;20385;-55
2022/06/27 03:24:33;;;;;;;19.63;13.90;;;;;;;15.69;96.61;99116.38;5124364;27;20020;-55
2022/06/27 03:26:59;;;;;;;20.63;13.88;;;;;;;15.75;97.92;99119.88;5123258;27;20031;-54
2022/06/27 03:29:24;;;;;;;23.95;14.35;;;;;;;15.77;97.58;99124.97;5100546;28;20027;-54
2022/06/27 03:31:49;;;;;;;21.10;14.05;;;;;;;15.80;96.76;99135.22;5122344;27;20019;-54
2022/06/27 03:34:15;;;;;;;22.50;13.70;;;;;;;15.89;95.95;99147.88;5116453;27;20646;-55
2022/06/27 03:36:43;;;;;;;23.02;14.32;;;;;;;15.89;96.07;99152.47;5121692;27;20030;-54
2022/06/27 03:39:09;;;;;;;22.90;15.25;;;;;;;15.81;96.18;99155.78;5117965;27;20026;-55
2022/06/27 03:41:34;;;;;;;25.60;14.95;;;;;;;15.92;94.05;99168.94;5112653;27;20028;-55
2022/06/27 03:43:59;;;;;;;19.55;13.95;;;;;;;16.01;94.38;99166.47;5122840;27;20376;-55
2022/06/27 03:46:25;;;;;;;26.30;15.32;;;;;;;16.07;97.04;99165.31;5127765;27;20480;-55
2022/06/27 03:51:35;;;;;;;25.92;14.43;;;;;;;15.80;96.66;99148.72;5116793;27;20420;-55
2022/06/27 03:54:00;;;;;;;22.63;13.48;;;;;;;16.08;94.66;99145.34;5114672;27;20028;-56
2022/06/27 03:56:26;;;;;;;19.90;13.88;;;;;;;16.14;93.91;99148.81;5080755;28;20020;-55
2022/06/27 03:58:52;;;;;;;24.92;14.02;;;;;;;16.09;97.39;99146.94;5120365;27;20030;-56
2022/06/27 04:01:17;;;;;;;23.65;15.82;;;;;;;16.15;96.48;99145.84;5121703;27;20073;-55
2022/06/27 04:03:43;;;;;;;24.77;14.85;;;;;;;16.20;98.06;99142.28;5121564;27;20073;-55
2022/06/27 04:06:08;;;;;;;22.50;14.18;;;;;;;16.20;98.23;99146.88;5113236;27;20024;-54
2022/06/27 04:08:33;;;;;;;21.77;15.40;;;;;;;16.22;97.88;99144.69;5118725;27;20024;-52
2022/06/27 04:10:59;;;;;;;23.20;13.90;;;;;;;16.18;97.90;99139.84;5121403;27;20072;-55
2022/06/27 04:13:24;;;;;;;22.13;13.93;;;;;;;16.18;96.90;99156.06;5104203;27;20011;-55
2022/06/27 04:15:50;;;;;;;21.77;13.45;;;;;;;16.07;99.16;99159.91;5100263;28;20028;-56
2022/06/27 04:18:18;;;;;;;25.05;14.10;;;;;;;15.99;98.57;99152.41;5116163;27;20076;-56
2022/06/27 04:20:43;;;;;;;27.48;13.52;;;;;;;15.88;99.59;99157.06;5103160;27;20028;-56
2022/06/27 04:23:09;;;;;;;27.92;14.23;;;;;;;15.85;99.46;99151.41;5120944;27;20038;-55
2022/06/27 04:25:34;;;;;;;24.92;13.80;;;;;;;15.79;98.96;99160.63;5101053;27;20019;-55
2022/06/27 04:28:02;;;;;;;24.83;14.55;;;;;;;15.82;98.87;99166.28;5112529;27;20679;-56
2022/06/27 04:30:29;;;;;;;26.23;15.10;;;;;;;15.79;100.00;99163.34;5104037;27;20036;-55
2022/06/27 04:32:56;;;;;;;25.00;15.40;;;;;;;15.80;100.00;99171.19;5096646;28;20446;-55
2022/06/27 04:35:25;;;;;;;33.45;15.32;;;;;;;15.68;100.00;99152.56;5110235;27;20024;-54
2022/06/27 04:37:50;;;;;;;26.10;15.68;;;;;;;15.83;100.00;99150.91;5115303;27;20019;-55
2022/06/27 04:40:19;;;;;;;27.23;13.75;;;;;;;15.90;99.16;99149.50;5120201;27;20388;-55
2022/06/27 04:42:45;;;;;;;17.15;12.00;;;;;;;16.18;98.02;99160.69;5102322;27;20519;-56
2022/06/27 04:45:16;;;;;;;19.95;13.05;;;;;;;16.32;96.21;99155.44;5119732;27;20020;-55
2022/06/27 04:47:42;;;;;;;20.33;13.02;;;;;;;16.20;96.16;99154.97;5097591;28;20035;-54
2022/06/27 04:50:12;;;;;;;24.15;13.32;;;;;;;16.34;95.69;99142.44;5114846;27;20020;-53
2022/06/27 04:52:38;;;;;;;18.20;12.75;;;;;;;16.04;96.45;99149.69;5109763;27;20107;-53
2022/06/27 04:55:08;;;;;;;22.00;14.95;;;;;;;16.09;98.08;99138.81;5118548;27;20106;-54
2022/06/27 04:57:35;;;;;;;17.30;12.65;;;;;;;15.87;97.66;99133.81;5116633;27;20016;-54
2022/06/27 05:00:02;;;;;;;19.83;14.00;;;;;;;15.94;96.98;99138.94;5117611;27;20488;-52
2022/06/27 05:02:28;;;;;;;19.83;14.45;;;;;;;16.27;96.10;99145.47;5094702;28;20032;-54
2022/06/27 05:04:53;;;;;;;20.52;14.13;;;;;;;16.48;94.13;99153.44;5090046;28;20429;-54
2022/06/27 05:07:19;;;;;;;24.42;13.00;;;;;;;16.41;92.04;99153.75;5116742;28;20070;-55
2022/06/27 05:09:45;;;;;;;22.08;14.50;;;;;;;16.67;93.48;99140.00;5118370;28;20031;-54
2022/06/27 05:12:10;;;;;;;22.55;14.15;;;;;;;17.33;90.33;99135.84;5116993;28;20042;-54
2022/06/27 05:14:36;;;;;;;25.25;11.90;;;;;;;18.90;82.20;99134.63;5114483;28;20020;-54
2022/06/27 05:17:02;;;;;;;19.88;11.77;;;;;;;18.83;81.18;99144.25;5115396;27;20035;-54
2022/06/27 05:19:27;;;;;;;18.33;11.73;;;;;;;17.89;81.90;99148.69;5117539;27;20019;-55
2022/06/27 05:21:53;;;;;;;19.15;12.65;;;;;;;17.41;85.10;99149.53;5124534;27;20042;-57
2022/06/27 05:24:18;;;;;;;17.48;12.65;;;;;;;17.70;84.89;99154.06;5121820;27;20024;-54
2022/06/27 05:26:45;;;;;;;20.67;12.23;;;;;;;17.69;84.55;99149.72;5097987;28;20398;-58
2022/06/27 05:29:11;;;;;;;18.70;12.48;;;;;;;17.56;83.24;99155.88;5126454;27;20040;-55
2022/06/27 05:31:36;;;;;;;19.30;12.32;;;;;;;17.50;85.62;99168.69;5116463;27;20031;-55
2022/06/27 05:34:02;;;;;;;22.52;12.93;;;;;;;16.75;87.23;99169.97;5119379;27;20481;-54
2022/06/27 05:36:27;;;;;;;22.55;13.43;;;;;;;16.47;91.61;99166.13;5125330;27;20035;-55
2022/06/27 05:38:53;;;;;;;19.13;13.13;;;;;;;16.94;88.17;99156.53;5118524;27;20035;-55
2022/06/27 05:41:18;;;;;;;25.88;13.15;;;;;;;16.58;90.36;99170.38;5105072;27;20031;-55
2022/06/27 05:43:45;;;;;;;27.25;14.77;;;;;;;16.36;92.80;99178.13;5120517;27;20437;-55
2022/06/27 05:46:10;;;;;;;20.95;14.23;;;;;;;16.83;90.20;99174.00;5116160;27;20124;-55
2022/06/27 05:48:37;;;;;;;20.10;13.98;;;;;;;16.88;90.26;99173.94;5125178;27;20057;-55
2022/06/27 05:51:02;;;;;;;22.42;13.70;;;;;;;16.37;92.70;99175.16;5094508;27;20069;-55
2022/06/27 05:53:28;;;;;;;21.50;15.32;;;;;;;16.24;94.32;99180.38;5115048;27;20024;-56
2022/06/27 05:55:54;;;;;;;22.27;14.65;;;;;;;16.74;92.65;99190.00;5112213;27;20026;-55
2022/06/27 05:58:19;;;;;;;21.58;15.15;;;;;;;17.25;90.16;99194.16;5110562;27;20068;-54
2022/06/27 06:00:45;;;;;;;24.60;14.27;;;;;;;17.31;88.60;99198.41;5122862;27;20446;-55
2022/06/27 06:03:11;;;;;;;27.45;15.65;;;;;;;17.77;87.40;99184.34;5121577;27;20027;-55
2022/06/27 06:05:36;;;;;;;20.10;14.75;;;;;;;17.78;85.69;99199.50;5120342;27;20107;-55
2022/06/27 06:08:03;;;;;;;22.48;14.27;;;;;;;17.69;86.38;99203.94;5094073;28;20084;-55
2022/06/27 06:10:29;;;;;;;21.77;14.45;;;;;;;17.92;86.10;99190.66;5123460;27;20024;-54
2022/06/27 06:12:55;;;;;;;19.52;13.35;;;;;;;17.51;87.95;99207.41;5121273;27;20034;-55
2022/06/27 06:15:20;;;;;;;19.27;13.15;;;;;;;17.72;87.59;99214.19;5122975;27;20031;-56
2022/06/27 06:17:46;;;;;;;21.58;12.10;;;;;;;18.29;85.32;99204.25;5118354;27;20022;-55
2022/06/27 06:20:12;;;;;;;19.50;12.68;;;;;;;17.54;88.61;99212.25;5097645;27;20027;-55
2022/06/27 06:22:39;;;;;;;24.77;13.27;;;;;;;17.83;88.82;99215.72;5119356;27;20114;-55
2022/06/27 06:25:05;;;;;;;26.95;14.25;;;;;;;17.56;89.00;99210.06;5102700;27;20023;-55
2022/06/27 06:27:31;;;;;;;23.65;13.20;;;;;;;17.81;89.39;99206.28;5103209;27;20026;-55
2022/06/27 06:29:56;;;;;;;25.90;12.80;;;;;;;17.28;91.04;99198.19;5105036;27;20019;-56
2022/06/27 06:32:23;;;;;;;22.35;14.77;;;;;;;17.11;92.45;99212.19;5089357;27;20023;-55
2022/06/27 06:34:49;;;;;;;20.73;14.18;;;;;;;17.19;92.06;99206.13;5123933;27;20031;-55
2022/06/27 06:37:14;;;;;;;29.15;14.52;;;;;;;16.90;93.29;99198.00;5119360;27;20034;-55
2022/06/27 06:39:39;;;;;;;25.23;14.70;;;;;;;17.09;93.73;99206.22;5113837;27;20049;-55
2022/06/27 06:42:05;;;;;;;26.02;15.55;;;;;;;17.20;92.10;99215.88;5104446;27;20036;-56
2022/06/27 06:44:31;;;;;;;17.92;14.02;;;;;;;17.06;92.70;99206.81;5116363;27;20457;-55
2022/06/27 06:46:57;;;;;;;24.23;16.35;;;;;;;16.98;93.41;99198.22;5118919;27;20046;-55
2022/06/27 06:49:23;;;;;;;24.02;15.45;;;;;;;17.37;92.70;99204.56;5077451;28;20484;-56
2022/06/27 06:51:48;;;;;;;18.55;13.82;;;;;;;17.59;89.60;99204.88;5108651;27;20027;-55
2022/06/27 06:54:17;;;;;;;22.13;12.35;;;;;;;18.15;87.83;99210.72;5123399;27;20098;-55
2022/06/27 06:56:45;;;;;;;17.13;10.52;;;;;;;22.75;71.91;99199.25;5125408;27;20534;-56
2022/06/27 06:59:10;;;;;;;15.65;8.20;;;;;;;23.89;61.92;99195.81;5077149;28;20036;-56
2022/06/27 07:01:36;;;;;;;16.67;8.55;;;;;;;22.81;64.85;99203.41;5122406;27;20156;-56
2022/06/27 07:04:02;;;;;;;13.70;8.65;;;;;;;22.45;67.68;99218.25;5116039;27;20027;-55
2022/06/27 07:06:29;;;;;;;17.33;8.80;;;;;;;24.47;58.62;99223.44;5122349;27;20080;-56
2022/06/27 07:08:56;;;;;;;12.15;7.55;;;;;;;24.75;59.18;99225.59;5114325;27;20077;-55
2022/06/27 07:11:25;;;;;;;14.13;7.30;;;;;;;22.83;63.21;99233.94;5117827;27;20024;-55
2022/06/27 07:13:51;;;;;;;12.98;8.43;;;;;;;21.65;65.63;99212.94;5116650;27;20076;-55
2022/06/27 07:16:20;;;;;;;16.90;8.45;;;;;;;20.88;70.24;99204.06;5118330;27;20059;-54
2022/06/27 07:18:49;;;;;;;11.57;8.07;;;;;;;21.41;70.08;99216.06;5120499;27;20396;-54
2022/06/27 07:21:16;;;;;;;15.73;8.38;;;;;;;20.75;69.82;99225.94;5123613;27;20131;-56
2022/06/27 07:23:42;;;;;;;13.15;8.63;;;;;;;21.53;69.64;99229.09;5122213;27;20109;-55
2022/06/27 07:26:09;;;;;;;13.95;8.10;;;;;;;21.17;68.62;99221.03;5100385;27;20036;-55
2022/06/27 07:28:35;;;;;;;19.17;8.10;;;;;;;21.33;69.47;99216.81;5099165;27;20054;-57
2022/06/27 07:31:01;;;;;;;16.15;8.20;;;;;;;21.16;69.87;99233.88;5123103;27;20050;-55
2022/06/27 07:33:27;;;;;;;16.08;8.25;;;;;;;20.81;72.99;99244.56;5120309;27;20023;-57
2022/06/27 07:35:53;;;;;;;15.55;8.38;;;;;;;21.23;72.76;99249.78;5118649;27;20100;-57
2022/06/27 07:38:18;;;;;;;11.38;8.40;;;;;;;21.05;72.11;99249.69;5121975;27;20482;-56
2022/06/27 07:40:44;;;;;;;13.38;8.73;;;;;;;20.77;73.62;99250.94;5113793;28;20028;-56
2022/06/27 07:43:11;;;;;;;15.90;8.98;;;;;;;21.15;73.36;99258.72;5112052;27;20023;-55
2022/06/27 07:45:38;;;;;;;14.38;7.20;;;;;;;24.93;61.97;99250.91;5093073;28;20393;-56
2022/06/27 07:48:05;;;;;;;11.98;7.82;;;;;;;22.84;66.45;99251.97;5104963;27;20096;-56
2022/06/27 07:50:37;;;;;;;16.95;7.10;;;;;;;22.50;68.18;99242.66;5103347;27;20026;-56
2022/06/27 07:53:14;;;;;;;12.63;7.95;;;;;;;21.06;70.53;99245.03;5109864;27;20020;-56
2022/06/27 07:55:40;;;;;;;10.88;7.47;;;;;;;20.58;75.31;99248.41;5088538;28;20042;-56
2022/06/27 07:58:07;;;;;;;12.63;8.75;;;;;;;20.73;75.98;99248.03;5096003;27;20032;-56
2022/06/27 08:00:33;;;;;;;10.32;7.55;;;;;;;20.83;75.19;99245.06;5111067;27;20052;-56
2022/06/27 08:02:59;;;;;;;12.63;7.00;;;;;;;23.57;66.06;99248.41;5120286;27;20448;-56
2022/06/27 08:05:24;;;;;;;11.60;7.22;;;;;;;22.60;67.89;99249.72;5118687;27;20024;-55
2022/06/27 08:07:50;;;;;;;9.80;6.55;;;;;;;22.10;69.46;99240.00;5120400;27;20046;-56
2022/06/27 08:10:16;;;;;;;13.02;6.90;;;;;;;21.35;71.96;99251.94;5114294;27;20027;-55
2022/06/27 08:12:41;;;;;;;12.43;6.82;;;;;;;21.98;69.56;99258.94;5119478;27;20026;-57
2022/06/27 08:15:09;;;;;;;14.77;6.47;;;;;;;21.75;68.96;99250.84;5126946;27;20389;-56
2022/06/27 08:17:34;;;;;;;12.57;6.50;;;;;;;22.76;66.34;99244.56;5116985;27;20031;-55
2022/06/27 08:19:59;;;;;;;11.38;6.07;;;;;;;22.85;66.78;99256.28;5112114;27;20019;-55
2022/06/27 08:22:25;;;;;;;15.13;6.00;;;;;;;22.52;66.79;99254.06;5097545;28;20042;-55
2022/06/27 08:24:51;;;;;;;14.80;6.85;;;;;;;22.21;68.37;99264.31;5110790;27;20034;-54
2022/06/27 08:27:16;;;;;;;11.80;6.40;;;;;;;21.58;70.20;99286.22;5117409;27;20106;-54
2022/06/27 08:29:43;;;;;;;11.55;7.53;;;;;;;21.41;71.27;99305.22;5115891;27;20027;-55
2022/06/27 08:32:09;;;;;;;13.82;6.70;;;;;;;21.15;74.06;99308.59;5115155;27;20068;-55
2022/06/27 08:34:35;;;;;;;11.25;6.32;;;;;;;21.25;74.09;99305.59;5109814;28;20027;-55
2022/06/27 08:37:01;;;;;;;8.18;7.13;;;;;;;20.53;74.95;99305.66;5113591;27;20024;-54
2022/06/27 08:39:28;;;;;;;10.65;6.20;;;;;;;20.48;74.56;99298.41;5114087;27;20026;-58
2022/06/27 08:41:53;;;;;;;10.68;6.07;;;;;;;21.11;74.72;99313.03;5111366;27;20031;-54
2022/06/27 08:44:19;;;;;;;8.63;5.50;;;;;;;21.68;71.54;99315.97;5127393;27;20076;-55
2022/06/27 08:46:47;;;;;;;8.45;6.30;;;;;;;22.04;68.50;99315.00;5119666;27;20027;-55
2022/06/27 08:49:14;;;;;;;9.25;5.38;;;;;;;22.11;70.38;99323.50;5114895;27;20016;-56
2022/06/27 08:51:39;;;;;;;6.93;5.82;;;;;;;21.50;71.79;99342.34;5105848;27;20100;-55
2022/06/27 08:54:05;;;;;;;7.90;5.80;;;;;;;21.57;71.39;99350.09;5111491;27;20465;-55
2022/06/27 08:56:31;;;;;;;11.90;6.03;;;;;;;21.30;71.82;99359.97;5116428;27;20027;-54
2022/06/27 08:58:58;;;;;;;9.23;6.60;;;;;;;20.92;74.15;99356.81;5113198;28;20024;-54
2022/06/27 09:01:24;;;;;;;9.18;6.13;;;;;;;20.36;76.66;99353.34;5114788;27;20069;-53
2022/06/27 09:03:58;;;;;;;13.27;6.93;;;;;;;20.46;78.38;99347.69;5111703;27;20043;-54
2022/06/27 09:06:25;;;;;;;10.48;6.88;;;;;;;20.26;77.45;99338.03;5100219;28;20031;-55
2022/06/27 09:09:03;;;;;;;8.93;6.78;;;;;;;19.89;78.97;99339.06;5123301;28;20023;-55
2022/06/27 09:11:30;;;;;;;11.68;7.55;;;;;;;19.63;80.40;99333.28;5099761;28;20031;-54
2022/06/27 09:13:56;;;;;;;9.80;7.43;;;;;;;19.74;80.08;99320.31;5069706;28;20097;-55
2022/06/27 09:16:22;;;;;;;12.02;7.15;;;;;;;19.38;80.13;99324.47;5077182;28;20059;-55
2022/06/27 09:18:47;;;;;;;11.60;7.70;;;;;;;19.87;79.08;99314.09;5120778;28;20371;-54
2022/06/27 09:21:13;;;;;;;14.35;6.97;;;;;;;20.75;76.48;99318.53;5117482;28;20390;-54
2022/06/27 09:23:49;;;;;;;9.63;6.78;;;;;;;20.87;76.81;99322.31;5119885;28;20027;-55
2022/06/27 09:26:21;;;;;;;10.32;6.00;;;;;;;21.16;75.21;99331.97;5108021;28;20015;-54
2022/06/27 09:28:54;;;;;;;8.05;6.30;;;;;;;20.87;75.65;99322.31;5126304;28;20110;-55
2022/06/27 09:31:28;;;;;;;10.38;5.70;;;;;;;21.42;73.68;99312.31;5114380;28;20027;-54
2022/06/27 09:34:14;;;;;;;7.95;6.18;;;;;;;20.92;74.58;99312.41;5105849;28;20031;-54
2022/06/27 09:36:46;;;;;;;9.13;5.55;;;;;;;20.74;74.97;99314.19;5088750;28;20031;-54
2022/06/27 09:39:19;;;;;;;9.05;5.53;;;;;;;21.30;74.83;99300.00;5116910;28;20024;-54
2022/06/27 09:41:54;;;;;;;10.43;5.30;;;;;;;23.09;69.64;99304.19;5111072;28;20036;-54
2022/06/27 09:44:21;;;;;;;8.65;4.90;;;;;;;22.42;71.59;99319.91;5115259;28;20024;-52
2022/06/27 09:46:50;;;;;;;12.75;4.90;;;;;;;22.09;70.66;99312.09;5109286;28;20027;-54
2022/06/27 09:49:15;;;;;;;13.13;4.90;;;;;;;21.37;73.26;99317.84;5114485;28;20114;-55
2022/06/27 09:51:41;;;;;;;6.97;4.70;;;;;;;20.66;75.41;99319.25;5119594;28;20717;-55
2022/06/27 09:54:16;;;;;;;6.45;4.40;;;;;;;21.38;74.77;99328.44;5116785;28;20032;-54
2022/06/27 09:56:45;;;;;;;7.63;4.85;;;;;;;21.04;77.06;99340.72;5125127;28;20084;-55
2022/06/27 09:59:11;;;;;;;6.73;4.20;;;;;;;20.53;77.45;99344.56;5113191;28;20042;-54
2022/06/27 10:01:38;;;;;;;6.93;4.47;;;;;;;21.05;76.20;99341.53;5111592;28;20239;-55
2022/06/27 10:04:04;;;;;;;9.38;4.50;;;;;;;20.92;77.14;99345.09;5107893;27;20023;-54
2022/06/27 10:06:30;;;;;;;6.60;4.22;;;;;;;21.56;75.36;99345.72;5101469;27;20350;-55
2022/06/27 10:08:56;;;;;;;5.28;4.13;;;;;;;21.20;75.84;99348.53;5107738;28;20044;-54
2022/06/27 10:11:21;;;;;;;8.15;4.40;;;;;;;21.29;73.71;99350.22;5118267;27;20019;-55
2022/06/27 10:14:10;;;;;;;7.32;4.80;;;;;;;21.30;76.87;99364.63;5105696;27;20023;-54
2022/06/27 10:16:36;;;;;;;12.30;6.38;;;;;;;21.35;74.41;99369.97;5113289;27;20039;-55
2022/06/27 10:19:03;;;;;;;14.77;7.35;;;;;;;20.80;75.17;99375.63;5089694;27;20650;-55
2022/06/27 10:21:33;;;;;;;16.52;8.23;;;;;;;20.74;71.55;99379.56;5121059;27;20578;-55
2022/06/27 10:24:34;;;;;;;15.35;8.07;;;;;;;20.77;71.82;99382.47;5124463;27;20532;-54
2022/06/27 10:27:02;;;;;;;15.00;8.00;;;;;;;21.13;69.96;99397.22;5038403;28;20037;-54
2022/06/27 10:29:30;;;;;;;18.13;8.65;;;;;;;21.54;69.47;99399.78;5098076;27;20031;-54
2022/06/27 10:31:59;;;;;;;21.27;8.93;;;;;;;21.44;68.99;99394.56;5105744;28;20034;-55
2022/06/27 10:34:40;;;;;;;18.70;8.32;;;;;;;21.84;67.84;99383.75;5102660;27;20148;-55
2022/06/27 10:37:21;;;;;;;14.82;9.95;;;;;;;22.53;64.01;99383.22;5113799;27;20448;-53
2022/06/27 10:39:47;;;;;;;13.07;9.68;;;;;;;22.30;63.01;99374.34;5094423;28;20444;-54
2022/06/27 10:42:44;;;;;;;14.40;8.93;;;;;;;22.65;62.24;99367.03;5111352;27;20019;-55
2022/06/27 10:45:21;;;;;;;15.02;10.55;;;;;;;21.49;65.83;99368.00;5108932;27;20034;-56
2022/06/27 10:47:57;;;;;;;15.27;10.15;;;;;;;21.80;63.91;99377.31;5121247;27;20023;-55
2022/06/27 10:50:26;;;;;;;17.48;10.27;;;;;;;22.23;62.49;99384.91;5091177;27;20023;-56
2022/06/27 10:53:24;;;;;;;14.25;9.57;;;;;;;22.93;61.40;99394.84;5113570;27;20035;-58
2022/06/27 10:55:49;;;;;;;15.35;9.75;;;;;;;22.32;62.41;99400.19;5111767;27;20035;-54
2022/06/27 10:58:20;;;;;;;16.83;11.13;;;;;;;21.82;64.56;99392.25;5100820;27;20026;-53
2022/06/27 11:00:45;;;;;;;17.55;10.38;;;;;;;22.77;62.26;99378.13;5123678;27;20051;-52
2022/06/27 11:03:26;;;;;;;16.05;10.32;;;;;;;23.13;61.24;99374.28;5097837;27;20032;-54
2022/06/27 11:06:00;;;;;;;14.23;9.98;;;;;;;23.14;61.21;99381.38;5121544;27;20042;-54
2022/06/27 11:08:25;;;;;;;15.68;9.52;;;;;;;22.76;61.04;99386.63;5120665;27;20023;-57
2022/06/27 11:10:51;;;;;;;15.95;10.60;;;;;;;22.11;61.22;99389.00;5108387;27;20031;-57
2022/06/27 11:13:43;;;;;;;13.98;9.63;;;;;;;21.55;63.98;99393.22;5113723;27;20027;-54
2022/06/27 11:16:10;;;;;;;16.05;10.10;;;;;;;21.78;63.71;99394.00;5121887;27;20120;-54
2022/06/27 11:18:54;;;;;;;12.98;9.80;;;;;;;21.57;64.71;99388.25;5104250;27;20028;-55
2022/06/27 11:21:34;;;;;;;15.75;9.80;;;;;;;21.52;64.44;99393.84;5090223;27;20032;-54
2022/06/27 11:24:08;;;;;;;17.58;7.80;;;;;;;22.09;63.38;99380.34;5123796;27;20031;-55
2022/06/27 11:26:54;;;;;;;11.32;7.55;;;;;;;22.43;63.06;99384.31;5117554;27;20024;-54